createdAt,value
2016-03-16T00:01:37.468Z,1026.4
2016-03-16T00:04:45.508Z,1026.46
2016-03-16T00:07:55.093Z,1026.46
2016-03-16T00:11:06.602Z,1026.58
2016-03-16T00:14:17.613Z,1026.52
2016-03-16T00:17:32.965Z,1026.5
2016-03-16T00:20:35.733Z,1026.62
2016-03-16T00:23:44.580Z,1026.62
2016-03-16T00:26:53.558Z,1026.64
2016-03-16T00:30:01.993Z,1026.62
2016-03-16T00:33:12.922Z,1026.58
2016-03-16T00:36:22.493Z,1026.7
2016-03-16T00:39:37.811Z,1026.66
2016-03-16T00:42:40.428Z,1026.66
2016-03-16T00:45:51.936Z,1026.68
2016-03-16T00:49:03.663Z,1026.66
2016-03-16T00:52:15.064Z,1026.68
2016-03-16T00:55:30.103Z,1026.68
2016-03-16T00:58:36.847Z,1026.74
2016-03-16T01:01:39.354Z,1026.76
2016-03-16T01:04:48.035Z,1026.68
2016-03-16T01:07:59.608Z,1026.64
2016-03-16T01:11:08.396Z,1026.66
2016-03-16T01:14:16.612Z,1026.66
2016-03-16T01:17:32.671Z,1026.66
2016-03-16T01:20:39.131Z,1026.74
2016-03-16T01:23:41.859Z,1026.7
2016-03-16T01:26:51.555Z,1026.66
2016-03-16T01:30:03.078Z,1026.68
2016-03-16T01:33:12.992Z,1026.68
2016-03-16T01:36:24.610Z,1026.8
2016-03-16T01:39:37.433Z,1026.68
2016-03-16T01:42:39.988Z,1026.76
2016-03-16T01:45:48.309Z,1026.84
2016-03-16T01:48:59.973Z,1026.88
2016-03-16T01:52:11.622Z,1026.76
2016-03-16T01:55:20.864Z,1026.98
2016-03-16T01:58:36.234Z,1026.96
2016-03-16T02:01:38.852Z,1026.96
2016-03-16T02:04:49.922Z,1027
2016-03-16T02:08:01.226Z,1026.9
2016-03-16T02:11:11.703Z,1027
2016-03-16T02:14:24.228Z,1027.1
2016-03-16T02:17:39.519Z,1027.06
2016-03-16T02:20:42.060Z,1027.19
2016-03-16T02:23:53.614Z,1027.1
2016-03-16T02:27:04.903Z,1027.04
2016-03-16T02:30:16.709Z,1027.08
2016-03-16T02:33:24.639Z,1027.06
2016-03-16T02:36:39.509Z,1027
2016-03-16T02:39:42.157Z,1027.08
2016-03-16T02:42:51.010Z,1027.02
2016-03-16T02:45:59.642Z,1027.06
2016-03-16T02:49:11.369Z,1027.02
2016-03-16T02:52:22.533Z,1027.06
2016-03-16T02:55:37.326Z,1027.12
2016-03-16T02:58:39.770Z,1027.1
2016-03-16T03:01:48.264Z,1027.25
2016-03-16T03:04:59.818Z,1027.14
2016-03-16T03:08:08.482Z,1027.17
2016-03-16T03:11:19.819Z,1027.17
2016-03-16T03:14:35.674Z,1027.19
2016-03-16T03:17:38.260Z,1027.25
2016-03-16T03:20:50.268Z,1027.31
2016-03-16T03:24:01.698Z,1027.33
2016-03-16T03:27:10.096Z,1027.29
2016-03-16T03:30:21.526Z,1027.35
2016-03-16T03:33:36.725Z,1027.35
2016-03-16T03:36:39.294Z,1027.31
2016-03-16T03:39:46.787Z,1027.35
2016-03-16T03:42:58.405Z,1027.49
2016-03-16T03:46:09.804Z,1027.51
2016-03-16T03:49:18.343Z,1027.55
2016-03-16T03:52:33.790Z,1027.57
2016-03-16T03:55:36.345Z,1027.59
2016-03-16T03:58:45.229Z,1027.63
2016-03-16T04:01:54.940Z,1027.65
2016-03-16T04:05:06.260Z,1027.53
2016-03-16T04:08:17.424Z,1027.57
2016-03-16T04:11:32.667Z,1027.61
2016-03-16T04:14:38.990Z,1027.61
2016-03-16T04:17:41.217Z,1027.63
2016-03-16T04:20:49.882Z,1027.69
2016-03-16T04:24:00.624Z,1027.61
2016-03-16T04:27:12.070Z,1027.61
2016-03-16T04:30:20.578Z,1027.69
2016-03-16T04:33:32.742Z,1027.69
2016-03-16T04:36:38.909Z,1027.67
2016-03-16T04:39:41.339Z,1027.69
2016-03-16T04:42:52.660Z,1027.69
2016-03-16T04:46:02.574Z,1027.61
2016-03-16T04:49:14.035Z,1027.83
2016-03-16T04:52:22.199Z,1027.71
2016-03-16T04:55:37.304Z,1027.65
2016-03-16T04:58:39.718Z,1027.81
2016-03-16T05:01:47.758Z,1027.95
2016-03-16T05:04:59.000Z,1027.91
2016-03-16T05:08:10.373Z,1028.05
2016-03-16T05:11:19.256Z,1028.01
2016-03-16T05:14:31.311Z,1028.13
2016-03-16T05:17:37.166Z,1028.11
2016-03-16T05:20:38.986Z,1028.17
2016-03-16T05:23:49.635Z,1028.21
2016-03-16T05:27:00.800Z,1028.21
2016-03-16T05:30:12.010Z,1028.19
2016-03-16T05:33:23.081Z,1028.35
2016-03-16T05:36:35.854Z,1028.31
2016-03-16T05:39:38.257Z,1028.19
2016-03-16T05:42:49.670Z,1028.23
2016-03-16T05:46:01.413Z,1028.25
2016-03-16T05:49:16.952Z,1028.27
2016-03-16T05:52:24.586Z,1028.15
2016-03-16T05:55:36.487Z,1028.13
2016-03-16T05:58:46.964Z,1028.29
2016-03-16T06:02:00.363Z,1028.27
2016-03-16T06:05:09.871Z,1028.27
2016-03-16T06:08:20.003Z,1028.27
2016-03-16T06:11:34.245Z,1028.25
2016-03-16T06:14:37.257Z,1028.17
2016-03-16T06:17:49.155Z,1028.17
2016-03-16T06:21:01.038Z,1028.25
2016-03-16T06:24:10.327Z,1028.19
2016-03-16T06:27:19.102Z,1028.09
2016-03-16T06:30:35.343Z,1028.21
2016-03-16T06:33:38.340Z,1028.31
2016-03-16T06:36:49.893Z,1027.99
2016-03-16T06:40:00.120Z,1027.73
2016-03-16T06:43:13.503Z,1026.58
2016-03-16T06:46:30.543Z,1026.24
2016-03-16T06:49:35.817Z,1026.18
2016-03-16T06:52:48.281Z,1026.12
2016-03-16T06:56:01.992Z,1026.1
2016-03-16T06:59:15.671Z,1026.12
2016-03-16T07:02:33.665Z,1026.44
2016-03-16T07:05:38.594Z,1026.52
2016-03-16T07:08:49.324Z,1026.62
2016-03-16T07:12:02.862Z,1026.6
2016-03-16T07:15:13.730Z,1026.88
2016-03-16T07:18:25.145Z,1026.94
2016-03-16T07:21:37.997Z,1027.21
2016-03-16T07:24:48.164Z,1027.35
2016-03-16T07:28:00.422Z,1027.25
2016-03-16T07:31:13.368Z,1027.73
2016-03-16T07:34:23.235Z,1027.83
2016-03-16T07:37:35.868Z,1027.97
2016-03-16T07:40:48.379Z,1027.89
2016-03-16T07:44:01.042Z,1027.73
2016-03-16T07:47:10.816Z,1027.27
2016-03-16T07:50:22.419Z,1026.54
2016-03-16T07:53:37.661Z,1026.12
2016-03-16T07:56:43.375Z,1025.88
2016-03-16T07:59:56.680Z,1026
2016-03-16T08:03:11.250Z,1026.06
2016-03-16T08:06:22.989Z,1026.02
2016-03-16T08:09:39.059Z,1025.96
2016-03-16T08:12:45.602Z,1025.9
2016-03-16T08:16:01.719Z,1025.98
2016-03-16T08:19:18.008Z,1025.86
2016-03-16T08:22:38.157Z,1025.8
2016-03-16T08:25:45.918Z,1025.76
2016-03-16T08:29:02.160Z,1025.8
2016-03-16T08:32:16.575Z,1025.72
2016-03-16T08:35:36.301Z,1025.92
2016-03-16T08:38:43.828Z,1025.8
2016-03-16T08:41:58.147Z,1025.94
2016-03-16T08:45:11.500Z,1026.04
2016-03-16T08:48:23.446Z,1026.18
2016-03-16T08:51:39.157Z,1026.02
2016-03-16T08:54:45.043Z,1025.98
2016-03-16T08:57:58.145Z,1026.04
2016-03-16T09:01:10.262Z,1026.1
2016-03-16T09:04:22.567Z,1026.08
2016-03-16T09:07:39.111Z,1026.08
2016-03-16T09:10:45.106Z,1026.1
2016-03-16T09:13:56.505Z,1026.28
2016-03-16T09:17:07.997Z,1026.6
2016-03-16T09:20:20.067Z,1026.74
2016-03-16T09:23:38.079Z,1026.5
2016-03-16T09:26:41.923Z,1026.64
2016-03-16T09:30:06.775Z,1026.84
2016-03-16T09:33:09.320Z,1026.52
2016-03-16T09:36:20.583Z,1026.42
2016-03-16T09:39:38.037Z,1026.34
2016-03-16T09:42:43.325Z,1026.42
2016-03-16T09:45:56.756Z,1026.56
2016-03-16T09:49:07.857Z,1026.82
2016-03-16T09:52:19.755Z,1026.96
2016-03-16T09:55:34.560Z,1026.96
2016-03-16T09:58:39.459Z,1027.63
2016-03-16T10:01:50.017Z,1027.85
2016-03-16T10:05:03.181Z,1028.01
2016-03-16T10:08:16.486Z,1028.05
2016-03-16T10:11:32.041Z,1028.23
2016-03-16T10:14:37.345Z,1028.45
2016-03-16T10:17:51.201Z,1028.37
2016-03-16T10:21:02.755Z,1028.43
2016-03-16T10:24:16.545Z,1028.64
2016-03-16T10:27:33.600Z,1028.7
2016-03-16T10:30:39.483Z,1028.88
2016-03-16T10:33:54.071Z,1028.82
2016-03-16T10:37:08.424Z,1029.16
2016-03-16T10:40:21.665Z,1029.01
2016-03-16T10:43:37.361Z,1029.1
2016-03-16T10:46:48.681Z,1029.18
2016-03-16T10:49:59.942Z,1029.08
2016-03-16T10:53:14.232Z,1029.26
2016-03-16T10:56:32.100Z,1029.2
2016-03-16T10:59:37.639Z,1029.22
2016-03-16T11:02:48.366Z,1029.36
2016-03-16T11:06:02.642Z,1029.4
2016-03-16T11:09:14.182Z,1029.3
2016-03-16T11:12:30.674Z,1029.01
2016-03-16T11:15:36.276Z,1029.32
2016-03-16T11:18:50.268Z,1029.05
2016-03-16T11:22:01.292Z,1029.22
2016-03-16T11:25:15.506Z,1029.28
2016-03-16T11:28:30.842Z,1029.16
2016-03-16T11:31:34.992Z,1029.22
2016-03-16T11:34:50.280Z,1029.2
2016-03-16T11:38:04.650Z,1029.14
2016-03-16T11:41:18.643Z,1029.05
2016-03-16T11:44:36.901Z,1029.1
2016-03-16T11:47:42.346Z,1028.95
2016-03-16T11:50:53.323Z,1029.1
2016-03-16T11:54:05.631Z,1029.14
2016-03-16T11:57:19.779Z,1029.14
2016-03-16T12:00:34.975Z,1029.12
2016-03-16T12:03:40.420Z,1029.01
2016-03-16T12:06:54.257Z,1029.03
2016-03-16T12:10:07.939Z,1028.84
2016-03-16T12:13:22.151Z,1028.99
2016-03-16T12:16:36.049Z,1028.88
2016-03-16T12:19:50.198Z,1028.84
2016-03-16T12:23:04.615Z,1028.78
2016-03-16T12:26:18.404Z,1028.97
2016-03-16T12:29:34.397Z,1028.9
2016-03-16T12:32:39.561Z,1028.74
2016-03-16T12:35:51.819Z,1028.74
2016-03-16T12:39:03.924Z,1028.86
2016-03-16T12:42:17.932Z,1028.76
2016-03-16T12:45:35.908Z,1028.82
2016-03-16T12:48:41.213Z,1028.99
2016-03-16T12:51:55.066Z,1028.66
2016-03-16T12:55:06.639Z,1028.8
2016-03-16T12:58:20.693Z,1028.7
2016-03-16T13:01:38.515Z,1028.68
2016-03-16T13:04:43.742Z,1028.74
2016-03-16T13:07:57.467Z,1028.59
2016-03-16T13:11:08.588Z,1028.49
2016-03-16T13:14:22.471Z,1028.55
2016-03-16T13:17:36.449Z,1028.57
2016-03-16T13:20:47.049Z,1028.51
2016-03-16T13:23:59.010Z,1028.43
2016-03-16T13:27:09.678Z,1028.35
2016-03-16T13:30:21.343Z,1028.41
2016-03-16T13:33:39.100Z,1028.15
2016-03-16T13:36:44.202Z,1028.37
2016-03-16T13:39:57.836Z,1028.25
2016-03-16T13:43:11.049Z,1028.33
2016-03-16T13:46:24.869Z,1028.31
2016-03-16T13:49:37.143Z,1028.31
2016-03-16T13:52:49.168Z,1028.39
2016-03-16T13:56:02.894Z,1028.19
2016-03-16T13:59:16.639Z,1028.13
2016-03-16T14:02:34.225Z,1028.09
2016-03-16T14:05:39.139Z,1028.11
2016-03-16T14:08:52.632Z,1028.03
2016-03-16T14:12:06.358Z,1028.03
2016-03-16T14:15:20.072Z,1027.91
2016-03-16T14:18:37.518Z,1027.89
2016-03-16T14:21:42.308Z,1027.95
2016-03-16T14:24:55.893Z,1027.79
2016-03-16T14:28:07.152Z,1027.85
2016-03-16T14:31:20.662Z,1027.87
2016-03-16T14:34:38.015Z,1027.95
2016-03-16T14:37:41.647Z,1027.79
2016-03-16T14:40:52.265Z,1027.81
2016-03-16T14:44:05.586Z,1027.71
2016-03-16T14:47:17.659Z,1027.87
2016-03-16T14:50:30.824Z,1027.85
2016-03-16T14:53:38.112Z,1027.79
2016-03-16T14:56:41.371Z,1027.77
2016-03-16T14:59:53.487Z,1027.69
2016-03-16T15:03:05.823Z,1027.77
2016-03-16T15:06:18.147Z,1027.65
2016-03-16T15:09:31.823Z,1027.71
2016-03-16T15:12:38.720Z,1027.65
2016-03-16T15:15:40.791Z,1027.69
2016-03-16T15:18:54.159Z,1027.79
2016-03-16T15:22:06.511Z,1027.69
2016-03-16T15:25:15.880Z,1027.71
2016-03-16T15:28:31.951Z,1027.69
2016-03-16T15:31:39.366Z,1027.67
2016-03-16T15:34:42.889Z,1027.73
2016-03-16T15:37:55.162Z,1027.73
2016-03-16T15:41:07.593Z,1027.79
2016-03-16T15:44:17.136Z,1027.85
2016-03-16T15:47:33.424Z,1027.75
2016-03-16T15:50:36.947Z,1027.81
2016-03-16T15:53:46.660Z,1027.69
2016-03-16T15:56:59.182Z,1027.73
2016-03-16T16:00:08.753Z,1027.61
2016-03-16T16:03:19.436Z,1027.73
2016-03-16T16:06:32.335Z,1027.59
2016-03-16T16:09:39.843Z,1027.63
2016-03-16T16:12:43.444Z,1027.69
2016-03-16T16:15:53.734Z,1027.67
2016-03-16T16:19:04.680Z,1027.67
2016-03-16T16:22:16.988Z,1027.65
2016-03-16T16:25:34.604Z,1027.73
2016-03-16T16:28:38.050Z,1027.63
2016-03-16T16:31:50.387Z,1027.67
2016-03-16T16:35:02.863Z,1027.75
2016-03-16T16:38:11.765Z,1027.79
2016-03-16T16:41:24.179Z,1027.77
2016-03-16T16:44:36.625Z,1027.73
2016-03-16T16:47:49.070Z,1027.75
2016-03-16T16:50:58.844Z,1027.73
2016-03-16T16:54:12.261Z,1027.81
2016-03-16T16:57:24.347Z,1027.77
2016-03-16T17:00:38.230Z,1027.87
2016-03-16T17:03:41.769Z,1027.87
2016-03-16T17:06:53.418Z,1027.99
2016-03-16T17:10:03.833Z,1027.97
2016-03-16T17:13:12.264Z,1027.89
2016-03-16T17:16:25.273Z,1027.93
2016-03-16T17:19:36.844Z,1027.93
2016-03-16T17:22:49.133Z,1027.97
2016-03-16T17:26:01.453Z,1028.01
2016-03-16T17:29:13.621Z,1027.97
2016-03-16T17:32:25.738Z,1028.01
2016-03-16T17:35:37.824Z,1027.99
2016-03-16T17:38:50.113Z,1028.05
2016-03-16T17:42:02.262Z,1028.09
2016-03-16T17:45:11.223Z,1028.01
2016-03-16T17:48:23.390Z,1028.01
2016-03-16T17:51:39.523Z,1028.09
2016-03-16T17:54:42.703Z,1028.05
2016-03-16T17:57:54.478Z,1028.03
2016-03-16T18:01:06.798Z,1028.13
2016-03-16T18:04:15.683Z,1028.11
2016-03-16T18:07:32.113Z,1028.15
2016-03-16T18:10:39.528Z,1028.19
2016-03-16T18:13:43.004Z,1028.07
2016-03-16T18:16:55.419Z,1028.19
2016-03-16T18:20:07.537Z,1028.07
2016-03-16T18:23:16.094Z,1028.29
2016-03-16T18:26:31.868Z,1028.25
2016-03-16T18:29:39.172Z,1028.19
2016-03-16T18:32:42.534Z,1028.17
2016-03-16T18:35:54.690Z,1028.09
2016-03-16T18:39:04.524Z,1028.09
2016-03-16T18:42:16.708Z,1028.11
2016-03-16T18:45:32.773Z,1028.21
2016-03-16T18:48:36.014Z,1028.21
2016-03-16T18:51:47.912Z,1028.19
2016-03-16T18:55:00.089Z,1028.13
2016-03-16T18:58:12.300Z,1028.11
2016-03-16T19:01:24.451Z,1028.15
2016-03-16T19:04:36.304Z,1028.25
2016-03-16T19:07:48.246Z,1028.29
2016-03-16T19:10:58.709Z,1028.25
2016-03-16T19:14:10.779Z,1028.29
2016-03-16T19:17:20.685Z,1028.31
2016-03-16T19:20:34.349Z,1028.27
2016-03-16T19:23:37.499Z,1028.33
2016-03-16T19:26:45.851Z,1028.21
2016-03-16T19:29:57.984Z,1028.31
2016-03-16T19:33:10.195Z,1028.25
2016-03-16T19:36:22.456Z,1028.31
2016-03-16T19:39:38.777Z,1028.23
2016-03-16T19:42:41.957Z,1028.25
2016-03-16T19:45:51.371Z,1028.33
2016-03-16T19:49:03.223Z,1028.33
2016-03-16T19:52:13.043Z,1028.37
2016-03-16T19:55:23.178Z,1028.31
2016-03-16T19:58:36.139Z,1028.27
2016-03-16T20:01:39.211Z,1028.27
2016-03-16T20:04:49.563Z,1028.31
2016-03-16T20:08:01.555Z,1028.33
2016-03-16T20:11:13.250Z,1028.23
2016-03-16T20:14:21.510Z,1028.19
2016-03-16T20:17:36.894Z,1028.23
2016-03-16T20:20:39.590Z,1028.21
2016-03-16T20:23:50.474Z,1028.15
2016-03-16T20:27:01.597Z,1028.21
2016-03-16T20:30:13.339Z,1028.21
2016-03-16T20:33:22.818Z,1028.19
2016-03-16T20:36:36.404Z,1028.23
2016-03-16T20:39:39.366Z,1028.13
2016-03-16T20:42:48.436Z,1028.19
2016-03-16T20:46:00.428Z,1028.17
2016-03-16T20:49:11.812Z,1028.17
2016-03-16T20:52:19.902Z,1028.13
2016-03-16T20:55:35.394Z,1028.15
2016-03-16T20:58:38.463Z,1028.23
2016-03-16T21:01:48.691Z,1028.13
2016-03-16T21:04:58.026Z,1028.19
2016-03-16T21:08:09.863Z,1028.19
2016-03-16T21:11:22.546Z,1028.25
2016-03-16T21:14:32.756Z,1028.21
2016-03-16T21:17:40.015Z,1028.13
2016-03-16T21:20:42.554Z,1028.15
2016-03-16T21:23:54.375Z,1028.19
2016-03-16T21:27:05.929Z,1028.19
2016-03-16T21:30:14.672Z,1028.27
2016-03-16T21:33:23.683Z,1028.11
2016-03-16T21:36:37.629Z,1028.17
2016-03-16T21:39:40.606Z,1028.35
2016-03-16T21:42:50.504Z,1028.09
2016-03-16T21:46:01.872Z,1028.09
2016-03-16T21:49:13.927Z,1028.11
2016-03-16T21:52:25.813Z,1028.11
2016-03-16T21:55:37.055Z,1028.13
2016-03-16T21:58:49.063Z,1028.21
2016-03-16T22:02:01.087Z,1028.19
2016-03-16T22:05:12.610Z,1028.21
2016-03-16T22:08:24.543Z,1028.13
2016-03-16T22:11:40.364Z,1028.15
2016-03-16T22:14:43.231Z,1028.23
2016-03-16T22:17:53.819Z,1028.15
2016-03-16T22:21:02.436Z,1028.21
2016-03-16T22:24:13.694Z,1028.25
2016-03-16T22:27:25.830Z,1028.19
2016-03-16T22:30:39.432Z,1028.29
2016-03-16T22:33:42.486Z,1028.19
2016-03-16T22:36:52.745Z,1028.15
2016-03-16T22:40:01.628Z,1028.11
2016-03-16T22:43:13.605Z,1028.07
2016-03-16T22:46:23.081Z,1028.19
2016-03-16T22:49:36.686Z,1028.11
2016-03-16T22:52:39.647Z,1028.15
2016-03-16T22:55:51.483Z,1028.11
2016-03-16T22:59:03.288Z,1028.17
2016-03-16T23:02:14.187Z,1027.93
2016-03-16T23:05:25.792Z,1027.99
2016-03-16T23:08:39.284Z,1027.97
2016-03-16T23:11:42.496Z,1027.87
2016-03-16T23:14:53.909Z,1028.01
2016-03-16T23:18:05.808Z,1027.99
2016-03-16T23:21:14.722Z,1027.95
2016-03-16T23:24:26.624Z,1027.99
2016-03-16T23:27:38.507Z,1028.03
2016-03-16T23:30:50.452Z,1028.05
2016-03-16T23:34:02.320Z,1027.93
2016-03-16T23:37:11.062Z,1028.01
2016-03-16T23:40:20.986Z,1027.95
2016-03-16T23:43:37.044Z,1027.97
2016-03-16T23:46:39.958Z,1027.97
2016-03-16T23:49:51.795Z,1027.95
2016-03-16T23:53:02.866Z,1028.05
2016-03-16T23:56:13.842Z,1028.01
2016-03-16T23:59:23.491Z,1028.05
